Time;durP1;ratioP1;P1;durP2;ratioP2;P2;SDS_P1;SDS_P2;PMS_P1;PMS_P2;Temp;Humidity;BMP_temperature;BMP_pressure;BME280_temperature;BME280_humidity;BME280_pressure;Samples;Min_cycle;Max_cycle;Signal;HPM_P1;HPM_P2
2022/08/23 00:00:03;;;;;;;19.62;16.35;;;;;;;17.13;100.00;99932.19;2189294;78;21011;-70
2022/08/23 00:03:06;;;;;;;18.48;16.48;;;;;;;17.12;100.00;99930.03;2193640;79;21028;-71
2022/08/23 00:06:09;;;;;;;19.90;16.05;;;;;;;17.13;100.00;99924.14;2177809;79;21066;-71
2022/08/23 00:09:10;;;;;;;19.57;15.48;;;;;;;17.11;100.00;99922.19;2163455;79;21053;-70
2022/08/23 00:12:19;;;;;;;19.48;16.27;;;;;;;17.11;100.00;99926.20;2197592;79;21046;-71
2022/08/23 00:15:21;;;;;;;22.00;16.10;;;;;;;17.09;100.00;99919.73;2201609;79;21105;-70
2022/08/23 00:18:23;;;;;;;18.32;15.72;;;;;;;17.08;100.00;99915.39;2181350;79;20977;-69
2022/08/23 00:21:24;;;;;;;19.27;15.45;;;;;;;17.10;100.00;99915.19;2194747;79;20978;-70
2022/08/23 00:24:26;;;;;;;20.50;15.65;;;;;;;17.08;100.00;99910.03;2174331;79;21262;-70
2022/08/23 00:27:27;;;;;;;21.23;15.20;;;;;;;17.08;100.00;99910.55;2179631;79;20993;-69
2022/08/23 00:30:30;;;;;;;17.32;13.83;;;;;;;17.08;100.00;99915.39;2160171;79;20975;-70
2022/08/23 00:33:31;;;;;;;20.27;13.93;;;;;;;17.10;100.00;99911.17;2191921;79;21069;-71
2022/08/23 00:36:32;;;;;;;20.00;13.45;;;;;;;17.10;100.00;99911.17;2181684;79;21026;-70
2022/08/23 00:39:34;;;;;;;17.35;13.60;;;;;;;17.08;100.00;99912.70;2185868;79;20990;-70
2022/08/23 00:50:30;;;;;;;17.35;12.50;;;;;;;17.05;100.00;99898.92;2179040;79;20975;-70
2022/08/23 00:53:39;;;;;;;13.58;11.88;;;;;;;17.02;100.00;99892.13;2166602;80;21020;-70
2022/08/23 00:56:40;;;;;;;17.15;12.47;;;;;;;17.03;100.00;99891.08;2153934;80;21021;-71
2022/08/23 00:59:42;;;;;;;16.62;13.85;;;;;;;17.00;100.00;99880.79;2186413;79;21000;-70
2022/08/23 01:02:46;;;;;;;16.77;12.98;;;;;;;16.97;100.00;99882.04;2165262;79;21042;-71
2022/08/23 01:06:11;;;;;;;21.15;13.43;;;;;;;16.96;100.00;99879.06;2116727;81;20980;-71
2022/08/23 01:09:16;;;;;;;16.35;12.88;;;;;;;16.96;100.00;99884.42;2137391;81;21007;-70
2022/08/23 01:12:26;;;;;;;17.55;12.55;;;;;;;16.97;100.00;99892.76;2140904;80;21015;-70
2022/08/23 01:15:35;;;;;;;17.70;11.38;;;;;;;16.95;100.00;99898.88;2098626;82;21553;-71
2022/08/23 01:18:38;;;;;;;15.08;12.25;;;;;;;16.95;100.00;99917.63;2103161;82;21043;-71
2022/08/23 01:21:48;;;;;;;14.78;11.90;;;;;;;16.94;100.00;99932.05;2113464;82;21102;-75
2022/08/23 01:24:51;;;;;;;18.98;13.62;;;;;;;16.96;100.00;99951.95;2088079;82;21505;-71
2022/08/23 01:27:53;;;;;;;26.82;14.75;;;;;;;16.95;100.00;99962.34;2123224;82;21098;-70
2022/08/23 01:30:55;;;;;;;19.17;13.28;;;;;;;16.94;100.00;99944.11;2104835;82;21029;-70
2022/08/23 01:38:17;;;;;;;17.82;12.93;;;;;;;16.90;100.00;99947.45;2108192;82;21008;-68
2022/08/23 01:45:50;;;;;;;19.02;11.97;;;;;;;16.86;100.00;99941.66;2141691;80;21071;-68
2022/08/23 01:48:57;;;;;;;20.85;13.62;;;;;;;16.84;100.00;99951.80;2144789;81;21489;-68
2022/08/23 01:52:00;;;;;;;13.58;11.53;;;;;;;16.83;100.00;99950.13;2136461;81;21023;-68
2022/08/23 01:55:03;;;;;;;14.58;11.57;;;;;;;16.84;100.00;99945.59;2145711;81;21050;-68
2022/08/23 01:58:06;;;;;;;14.85;10.93;;;;;;;16.83;100.00;99950.66;2148053;80;21083;-69
2022/08/23 02:01:08;;;;;;;13.40;10.72;;;;;;;16.82;100.00;99947.67;2122378;81;21028;-68
2022/08/23 02:04:09;;;;;;;15.15;10.10;;;;;;;16.83;100.00;99948.79;2139514;80;21071;-68
2022/08/23 02:07:12;;;;;;;12.98;10.50;;;;;;;16.84;100.00;99952.28;2131662;81;21111;-70
2022/08/23 02:10:15;;;;;;;14.65;11.08;;;;;;;16.87;100.00;99959.93;2124513;81;21578;-69
2022/08/23 02:13:17;;;;;;;13.28;11.08;;;;;;;16.86;100.00;99955.58;2123361;81;21086;-70
2022/08/23 02:16:32;;;;;;;11.08;9.93;;;;;;;16.85;100.00;99959.31;2113366;81;21095;-69
2022/08/23 02:19:34;;;;;;;11.03;9.73;;;;;;;16.85;100.00;99964.15;2181606;79;21006;-71
2022/08/23 02:22:38;;;;;;;12.75;9.78;;;;;;;16.84;100.00;99965.19;2171903;79;21063;-71
2022/08/23 02:25:39;;;;;;;9.90;8.90;;;;;;;16.83;100.00;99958.17;2172846;80;21060;-68
2022/08/23 02:28:41;;;;;;;11.93;9.65;;;;;;;16.80;100.00;99955.91;2190104;79;21613;-68
2022/08/23 02:31:43;;;;;;;12.18;9.75;;;;;;;16.77;100.00;99965.19;2179982;79;20999;-68
2022/08/23 02:34:46;;;;;;;11.33;9.73;;;;;;;16.74;100.00;99959.41;2187222;79;21030;-68
2022/08/23 02:37:47;;;;;;;11.28;9.35;;;;;;;16.74;100.00;99966.11;2177007;79;21106;-68
2022/08/23 02:40:49;;;;;;;13.08;9.58;;;;;;;16.74;100.00;99965.59;2187255;79;20982;-69
2022/08/23 02:43:52;;;;;;;12.37;8.83;;;;;;;16.74;100.00;99956.73;2168154;79;21089;-69
2022/08/23 02:46:54;;;;;;;10.00;8.70;;;;;;;16.72;100.00;99958.79;2155920;79;21082;-69
2022/08/23 02:49:55;;;;;;;14.65;9.00;;;;;;;16.70;100.00;99961.70;2176327;79;21085;-68
2022/08/23 02:52:57;;;;;;;12.98;9.15;;;;;;;16.68;100.00;99957.58;2163168;79;21499;-69
2022/08/23 02:56:00;;;;;;;11.28;8.85;;;;;;;16.65;100.00;99957.48;2171075;79;21017;-70
2022/08/23 02:59:04;;;;;;;11.38;8.88;;;;;;;16.65;100.00;99952.12;2174860;79;21021;-69
2022/08/23 03:02:05;;;;;;;11.45;8.55;;;;;;;16.64;100.00;99955.84;2168289;79;21473;-68
2022/08/23 03:05:11;;;;;;;10.80;8.40;;;;;;;16.63;100.00;99953.36;2168137;79;21101;-68
2022/08/23 03:08:14;;;;;;;11.28;8.90;;;;;;;16.59;100.00;99953.78;2181960;79;21502;-68
2022/08/23 03:11:20;;;;;;;14.47;10.08;;;;;;;16.57;100.00;99951.83;2188829;79;21513;-68
2022/08/23 03:14:24;;;;;;;12.98;8.83;;;;;;;16.55;100.00;99955.74;2172466;79;21068;-68
2022/08/23 03:17:25;;;;;;;15.78;9.58;;;;;;;16.54;100.00;99962.96;2155852;78;21384;-69
2022/08/23 03:20:27;;;;;;;11.05;9.78;;;;;;;16.53;100.00;99951.14;2162593;79;20955;-68
2022/08/23 03:23:28;;;;;;;17.07;9.23;;;;;;;16.52;100.00;99956.16;2182028;79;21000;-69
2022/08/23 03:26:29;;;;;;;12.13;9.18;;;;;;;16.50;100.00;99959.07;2187394;79;20988;-68
2022/08/23 03:29:31;;;;;;;16.05;9.25;;;;;;;16.50;100.00;99956.88;2191325;79;21054;-70
2022/08/23 03:32:36;;;;;;;12.43;9.00;;;;;;;16.49;100.00;99955.25;2174780;79;21072;-68
2022/08/23 03:35:37;;;;;;;12.13;9.03;;;;;;;16.49;100.00;99955.25;2175138;80;21603;-69
2022/08/23 03:38:40;;;;;;;10.40;9.18;;;;;;;16.48;100.00;99953.61;2181563;79;21022;-70
2022/08/23 03:41:42;;;;;;;13.30;9.33;;;;;;;16.48;100.00;99953.09;2185315;79;22239;-68
2022/08/23 03:44:44;;;;;;;13.98;9.80;;;;;;;16.50;100.00;99952.86;2195837;79;21532;-69
2022/08/23 03:47:46;;;;;;;15.40;10.15;;;;;;;16.50;100.00;99959.56;2191641;79;21023;-68
2022/08/23 03:50:47;;;;;;;13.03;10.48;;;;;;;16.48;100.00;99954.43;2181963;79;21042;-69
2022/08/23 03:53:49;;;;;;;11.85;10.45;;;;;;;16.47;100.00;99954.13;2174756;79;20994;-69
2022/08/23 03:57:01;;;;;;;11.80;10.15;;;;;;;16.45;100.00;99950.84;2187221;79;21034;-68
2022/08/23 04:00:08;;;;;;;12.85;9.43;;;;;;;16.44;100.00;99949.69;2181446;79;21704;-68
2022/08/23 04:03:11;;;;;;;16.35;10.58;;;;;;;16.41;100.00;99965.66;2176774;79;21069;-68
2022/08/23 04:06:15;;;;;;;13.60;9.58;;;;;;;16.39;100.00;99969.57;2187502;79;20995;-68
2022/08/23 04:09:17;;;;;;;13.43;9.05;;;;;;;16.40;100.00;99969.89;2173009;79;21467;-69
2022/08/23 04:12:19;;;;;;;13.05;10.23;;;;;;;16.38;100.00;99975.45;2168718;79;21554;-69
2022/08/23 04:15:21;;;;;;;18.90;10.32;;;;;;;16.34;100.00;99972.38;2183786;79;21142;-68
2022/08/23 04:18:23;;;;;;;13.20;9.80;;;;;;;16.34;100.00;99978.25;2192983;79;21067;-69
2022/08/23 04:21:24;;;;;;;10.95;9.85;;;;;;;16.33;100.00;99984.13;2193482;79;20975;-68
2022/08/23 04:24:25;;;;;;;11.53;9.95;;;;;;;16.31;100.00;99980.00;2208331;79;21049;-68
2022/08/23 04:27:27;;;;;;;14.15;11.00;;;;;;;16.34;100.00;99983.59;2189319;79;21074;-68
2022/08/23 04:30:28;;;;;;;11.43;10.25;;;;;;;16.35;100.00;99991.93;2185810;79;21085;-71
2022/08/23 04:33:31;;;;;;;11.05;10.10;;;;;;;16.34;100.00;99987.62;2184812;79;21021;-68
2022/08/23 04:36:38;;;;;;;12.25;10.15;;;;;;;16.33;100.00;99989.48;2163512;79;21087;-68
2022/08/23 04:43:00;;;;;;;10.18;9.13;;;;;;;16.33;100.00;99991.30;2173703;79;21060;-67
2022/08/23 04:46:01;;;;;;;10.13;9.23;;;;;;;16.32;100.00;99989.67;2199778;79;21493;-67
2022/08/23 04:49:04;;;;;;;13.88;8.78;;;;;;;16.31;100.00;99990.71;2202027;79;20994;-68
2022/08/23 04:52:05;;;;;;;9.23;8.13;;;;;;;16.31;100.00;99998.74;2196928;79;21477;-68
2022/08/23 04:55:07;;;;;;;9.58;8.63;;;;;;;16.29;100.00;99998.94;2172978;79;21046;-68
2022/08/23 04:58:10;;;;;;;10.00;8.10;;;;;;;16.32;100.00;100003.05;2157774;79;21075;-68
2022/08/23 05:01:15;;;;;;;9.30;8.40;;;;;;;16.30;100.00;99997.08;2167170;79;21098;-70
2022/08/23 05:04:16;;;;;;;9.18;8.15;;;;;;;16.31;100.00;100002.76;2169063;79;21176;-69
2022/08/23 05:07:17;;;;;;;11.48;8.83;;;;;;;16.32;100.00;100005.73;2177852;79;21027;-69
2022/08/23 05:10:19;;;;;;;10.20;8.05;;;;;;;16.31;100.00;100009.45;2178519;79;21076;-68
2022/08/23 05:13:22;;;;;;;9.50;8.20;;;;;;;16.29;100.00;100008.83;2193832;79;21026;-69
2022/08/23 05:16:24;;;;;;;9.50;8.53;;;;;;;16.27;100.00;100011.70;2167229;79;20932;-69
2022/08/23 05:19:33;;;;;;;10.05;8.45;;;;;;;16.27;100.00;100008.20;2188527;79;21041;-69
2022/08/23 05:22:37;;;;;;;10.55;9.18;;;;;;;16.27;100.00;100016.23;2192306;79;21092;-68
2022/08/23 05:25:49;;;;;;;10.00;8.60;;;;;;;16.30;100.00;100015.33;2149353;79;21398;-69
2022/08/23 05:28:52;;;;;;;10.95;9.85;;;;;;;16.34;100.00;100013.05;2168066;78;21090;-69
2022/08/23 05:31:55;;;;;;;12.05;10.15;;;;;;;16.38;100.00;100011.59;2174550;79;21004;-69
2022/08/23 05:35:18;;;;;;;11.40;10.32;;;;;;;16.39;100.00;100014.59;2205096;79;21136;-69
2022/08/23 05:38:22;;;;;;;13.75;10.82;;;;;;;16.44;100.00;100016.11;2190763;79;21644;-69
2022/08/23 05:41:24;;;;;;;11.83;10.72;;;;;;;16.48;100.00;100001.30;2171463;78;21066;-72
2022/08/23 05:44:25;;;;;;;12.85;11.28;;;;;;;16.50;100.00;100007.77;2207722;79;21457;-68
2022/08/23 05:47:26;;;;;;;13.10;11.08;;;;;;;16.53;100.00;100013.55;2196533;79;20950;-70
2022/08/23 05:50:45;;;;;;;12.10;10.70;;;;;;;16.57;100.00;100008.59;2193316;78;20984;-67
2022/08/23 05:53:48;;;;;;;14.20;11.63;;;;;;;16.62;100.00;100009.32;2213493;79;21038;-68
2022/08/23 05:56:50;;;;;;;13.55;11.30;;;;;;;16.66;100.00;100013.21;2202908;78;21033;-67
2022/08/23 05:59:51;;;;;;;14.28;10.35;;;;;;;16.72;100.00;100013.71;2216671;79;21018;-67
2022/08/23 06:02:52;;;;;;;13.83;10.78;;;;;;;16.77;100.00;100022.80;2215309;79;20973;-67
2022/08/23 06:05:59;;;;;;;12.90;11.60;;;;;;;16.88;100.00;100020.52;2186206;79;21119;-67
2022/08/23 06:09:03;;;;;;;14.53;11.57;;;;;;;16.93;100.00;100024.21;2215651;78;20990;-70
2022/08/23 06:12:04;;;;;;;13.45;10.95;;;;;;;17.02;100.00;100025.62;2201863;79;20979;-67
2022/08/23 06:15:07;;;;;;;16.30;10.95;;;;;;;17.06;100.00;100033.23;2194405;79;21002;-67
2022/08/23 06:18:08;;;;;;;12.15;10.85;;;;;;;17.13;100.00;100035.39;2198799;79;20970;-68
2022/08/23 06:21:13;;;;;;;13.00;11.70;;;;;;;17.16;100.00;100041.67;2200723;78;21055;-67
2022/08/23 06:24:18;;;;;;;12.75;11.48;;;;;;;17.15;100.00;100044.88;2213233;79;21485;-70
2022/08/23 06:27:21;;;;;;;14.98;12.00;;;;;;;17.19;100.00;100039.91;2212233;78;21089;-69
2022/08/23 06:30:22;;;;;;;19.20;13.15;;;;;;;17.24;100.00;100046.80;2218035;78;21041;-70
2022/08/23 06:33:29;;;;;;;18.07;13.48;;;;;;;17.25;100.00;100048.44;2220814;79;21632;-67
2022/08/23 06:36:41;;;;;;;13.90;12.25;;;;;;;17.28;100.00;100050.69;2209575;79;21544;-67
2022/08/23 06:39:51;;;;;;;19.57;13.05;;;;;;;17.35;100.00;100048.81;2195693;79;21477;-67
2022/08/23 06:42:54;;;;;;;15.75;13.28;;;;;;;17.37;100.00;100052.12;2186288;78;21350;-68
2022/08/23 06:46:17;;;;;;;17.40;13.10;;;;;;;17.40;100.00;100056.20;2199721;79;20979;-68
2022/08/23 06:49:19;;;;;;;15.20;13.35;;;;;;;17.39;100.00;100066.12;2174215;79;21089;-67
2022/08/23 06:52:20;;;;;;;19.15;14.53;;;;;;;17.35;100.00;100069.45;2217918;79;20969;-68
2022/08/23 06:55:34;;;;;;;20.45;14.10;;;;;;;17.32;100.00;100059.16;2214827;79;21090;-68
2022/08/23 06:58:55;;;;;;;17.25;14.80;;;;;;;17.35;100.00;100070.80;2217361;78;21049;-68
2022/08/23 07:02:02;;;;;;;19.60;15.55;;;;;;;17.25;100.00;100069.36;2214872;78;21489;-67
2022/08/23 07:05:06;;;;;;;19.80;15.53;;;;;;;17.22;100.00;100074.33;2194675;79;21410;-69
2022/08/23 07:08:27;;;;;;;23.57;16.23;;;;;;;17.25;100.00;100070.70;2217323;78;20952;-69
2022/08/23 07:11:32;;;;;;;19.15;15.55;;;;;;;17.22;100.00;100057.72;2209174;79;20983;-70
2022/08/23 07:14:36;;;;;;;18.57;16.15;;;;;;;17.19;100.00;100062.17;2211761;79;20958;-69
2022/08/23 07:17:38;;;;;;;17.32;15.58;;;;;;;17.16;100.00;100070.64;2216706;78;21541;-69
2022/08/23 07:20:42;;;;;;;20.25;15.90;;;;;;;17.21;100.00;100068.67;2223234;78;21015;-69
2022/08/23 07:23:44;;;;;;;16.27;14.60;;;;;;;17.30;100.00;100063.38;2192455;79;21045;-69
2022/08/23 07:26:48;;;;;;;17.75;15.70;;;;;;;17.44;100.00;100069.52;2197341;79;21050;-71
2022/08/23 07:29:50;;;;;;;16.17;14.47;;;;;;;17.51;100.00;100081.55;2209610;79;21030;-70
2022/08/23 07:32:51;;;;;;;17.65;15.85;;;;;;;17.56;100.00;100088.44;2216006;79;20947;-69
2022/08/23 07:35:54;;;;;;;19.92;16.40;;;;;;;17.55;100.00;100094.85;2225333;79;21079;-69
2022/08/23 07:38:56;;;;;;;18.67;16.05;;;;;;;17.61;100.00;100074.69;2212292;79;20959;-69
2022/08/23 07:42:03;;;;;;;19.90;15.63;;;;;;;17.66;100.00;100069.52;2201278;79;20979;-71
2022/08/23 07:45:06;;;;;;;19.62;16.07;;;;;;;17.73;100.00;100086.09;2211848;78;21068;-70
2022/08/23 07:48:11;;;;;;;17.40;14.20;;;;;;;17.75;100.00;100090.73;2202031;79;21109;-69
2022/08/23 07:51:14;;;;;;;23.32;16.50;;;;;;;17.76;100.00;100095.88;2211666;79;20978;-70
2022/08/23 07:54:18;;;;;;;18.62;15.23;;;;;;;17.64;100.00;100093.56;2198141;78;21006;-69
2022/08/23 07:57:27;;;;;;;16.07;14.30;;;;;;;17.64;100.00;100088.20;2215173;79;21493;-69
2022/08/23 08:00:30;;;;;;;18.23;16.17;;;;;;;17.70;100.00;100087.34;2169418;79;20968;-69
2022/08/23 08:03:48;;;;;;;18.05;15.10;;;;;;;17.78;100.00;100086.28;2184182;79;21628;-69
2022/08/23 08:06:51;;;;;;;15.98;13.65;;;;;;;17.90;100.00;100093.45;2204596;79;21038;-69
2022/08/23 08:09:54;;;;;;;15.08;13.15;;;;;;;18.08;100.00;100083.87;2209283;79;21076;-69
2022/08/23 08:12:56;;;;;;;18.07;14.05;;;;;;;18.21;100.00;100082.94;2211645;79;20969;-71
2022/08/23 08:15:58;;;;;;;15.18;12.53;;;;;;;18.27;100.00;100083.41;2184184;79;20971;-70
2022/08/23 08:19:05;;;;;;;13.20;11.90;;;;;;;18.51;100.00;100088.50;2205955;78;21090;-69
2022/08/23 08:22:08;;;;;;;14.80;12.40;;;;;;;18.85;100.00;100088.53;2184592;79;20995;-70
2022/08/23 08:25:21;;;;;;;14.65;10.85;;;;;;;19.06;100.00;100079.20;2179191;79;21045;-69
2022/08/23 08:28:24;;;;;;;11.97;10.78;;;;;;;19.12;100.00;100080.17;2218964;79;21040;-69
2022/08/23 08:31:26;;;;;;;10.30;9.40;;;;;;;18.97;99.43;100098.03;2204997;79;21211;-70
2022/08/23 08:34:28;;;;;;;10.18;9.20;;;;;;;18.66;99.33;100114.50;2211959;78;21008;-70
2022/08/23 08:37:30;;;;;;;9.88;9.00;;;;;;;18.33;99.25;100118.30;2209389;79;22310;-74
2022/08/23 08:40:36;;;;;;;11.48;9.45;;;;;;;18.15;100.00;100116.85;2210089;79;20972;-70
2022/08/23 08:44:04;;;;;;;9.60;8.70;;;;;;;17.97;100.00;100106.03;2217867;79;20991;-69
2022/08/23 08:47:15;;;;;;;9.73;8.73;;;;;;;17.90;100.00;100110.89;2215938;79;21711;-70
2022/08/23 08:50:39;;;;;;;10.47;8.80;;;;;;;17.81;100.00;100114.87;2225319;79;21022;-70
2022/08/23 08:53:44;;;;;;;11.25;9.50;;;;;;;17.80;100.00;100119.95;2206199;79;21082;-70
2022/08/23 08:56:50;;;;;;;10.50;9.50;;;;;;;17.79;100.00;100127.67;2223028;78;21519;-70
2022/08/23 09:00:09;;;;;;;10.80;9.73;;;;;;;17.88;100.00;100134.98;2220810;79;20989;-70
2022/08/23 09:03:19;;;;;;;10.13;9.23;;;;;;;18.01;100.00;100138.92;2203877;79;21006;-70
2022/08/23 09:07:02;;;;;;;10.03;8.73;;;;;;;18.19;100.00;100140.05;2175403;79;21383;-70
2022/08/23 09:10:47;;;;;;;9.95;8.95;;;;;;;18.31;100.00;100140.51;2222856;79;21022;-70
2022/08/23 09:13:55;;;;;;;10.38;9.38;;;;;;;18.49;100.00;100134.91;2198838;79;21736;-70
2022/08/23 09:17:26;;;;;;;10.65;9.55;;;;;;;18.59;100.00;100144.12;2213052;78;21558;-70
2022/08/23 09:20:29;;;;;;;11.35;9.68;;;;;;;18.65;100.00;100137.05;2220291;78;21137;-70
2022/08/23 09:23:41;;;;;;;11.28;10.18;;;;;;;18.77;100.00;100138.01;2179118;79;20987;-69
2022/08/23 09:26:43;;;;;;;10.72;9.73;;;;;;;18.92;100.00;100138.19;2216108;79;21064;-69
2022/08/23 09:29:58;;;;;;;10.80;9.80;;;;;;;19.02;100.00;100133.14;2193669;79;21472;-69
2022/08/23 09:33:16;;;;;;;10.55;9.65;;;;;;;19.15;100.00;100128.17;2204019;79;20943;-70
2022/08/23 09:36:27;;;;;;;11.95;9.48;;;;;;;19.27;100.00;100139.82;2211132;78;21140;-70
2022/08/23 09:39:34;;;;;;;10.75;9.68;;;;;;;19.36;100.00;100129.59;2207327;79;20990;-70
2022/08/23 09:42:40;;;;;;;10.48;9.53;;;;;;;19.42;100.00;100135.41;2196272;79;21053;-71
2022/08/23 09:45:54;;;;;;;10.43;9.28;;;;;;;19.39;100.00;100131.83;2222856;79;21030;-69
2022/08/23 09:49:00;;;;;;;10.45;9.45;;;;;;;19.43;100.00;100143.80;2212830;79;21081;-69
2022/08/23 09:52:23;;;;;;;10.58;9.63;;;;;;;19.42;99.46;100139.44;2228084;78;21022;-70
2022/08/23 09:55:44;;;;;;;8.93;8.05;;;;;;;19.40;99.08;100149.10;2209965;79;21022;-69
2022/08/23 09:58:49;;;;;;;11.22;9.70;;;;;;;19.43;99.71;100146.48;2204889;78;20986;-70
2022/08/23 10:01:56;;;;;;;11.20;9.93;;;;;;;19.43;98.68;100149.18;2205282;79;20989;-69
2022/08/23 10:05:05;;;;;;;10.95;9.60;;;;;;;19.40;98.84;100161.70;2210351;78;21105;-72
2022/08/23 10:08:08;;;;;;;10.72;9.68;;;;;;;19.39;99.11;100159.55;2213905;78;21030;-69
2022/08/23 10:11:16;;;;;;;12.05;10.95;;;;;;;19.37;98.91;100161.66;2217560;79;21043;-71
2022/08/23 10:14:20;;;;;;;13.53;11.20;;;;;;;19.36;99.07;100157.30;2209549;79;21661;-69
2022/08/23 10:17:44;;;;;;;11.28;10.25;;;;;;;19.35;99.38;100152.98;2224921;78;21042;-69
2022/08/23 10:21:26;;;;;;;11.97;10.85;;;;;;;19.39;99.40;100158.73;2176532;80;21139;-70
2022/08/23 10:24:46;;;;;;;12.40;11.03;;;;;;;19.38;99.40;100155.75;2209182;79;21861;-69
2022/08/23 10:31:47;;;;;;;12.25;10.55;;;;;;;19.32;99.00;100163.38;2211189;78;20994;-70
2022/08/23 10:35:31;;;;;;;13.03;9.65;;;;;;;19.28;98.96;100160.81;2208849;78;21094;-69
2022/08/23 10:38:47;;;;;;;11.28;10.23;;;;;;;19.23;99.40;100155.59;2138996;82;21058;-69
2022/08/23 10:42:06;;;;;;;11.40;10.18;;;;;;;19.26;99.26;100157.84;2140594;79;21101;-69
2022/08/23 10:45:37;;;;;;;11.48;10.38;;;;;;;19.29;99.44;100151.69;2196464;79;21089;-70
2022/08/23 10:48:54;;;;;;;12.30;10.38;;;;;;;19.40;100.00;100147.75;2203355;79;21587;-71
2022/08/23 10:51:58;;;;;;;11.78;10.53;;;;;;;19.58;100.00;100145.58;2216613;79;21035;-70
2022/08/23 10:55:16;;;;;;;11.10;9.85;;;;;;;19.80;100.00;100150.53;2205345;78;21039;-70
2022/08/23 10:58:15;;;;;;;10.72;9.63;;;;;;;20.04;100.00;100154.95;2204592;79;21022;-71
2022/08/23 11:01:24;;;;;;;11.53;9.60;;;;;;;20.30;100.00;100155.63;2218360;79;21037;-71
2022/08/23 11:04:51;;;;;;;10.90;9.15;;;;;;;20.39;99.70;100158.31;2193177;79;21045;-71
2022/08/23 11:08:05;;;;;;;9.90;8.90;;;;;;;20.40;98.04;100161.83;2140055;81;21095;-70
2022/08/23 11:11:38;;;;;;;10.30;8.15;;;;;;;20.34;97.79;100165.73;2218639;79;21033;-74
2022/08/23 11:15:09;;;;;;;9.45;8.55;;;;;;;20.35;97.66;100169.23;2212959;79;20972;-71
2022/08/23 11:18:41;;;;;;;10.10;9.03;;;;;;;20.27;96.81;100165.52;2207277;79;21084;-70
2022/08/23 11:21:46;;;;;;;9.28;8.28;;;;;;;20.31;97.23;100164.84;2187036;78;21014;-69
2022/08/23 11:25:02;;;;;;;10.45;8.50;;;;;;;20.36;97.16;100168.20;2203607;79;21083;-70
2022/08/23 11:28:29;;;;;;;9.35;7.92;;;;;;;20.38;97.11;100162.89;2206685;79;21441;-71
2022/08/23 11:31:50;;;;;;;10.25;8.20;;;;;;;20.38;96.61;100163.39;2215076;78;21085;-71
2022/08/23 11:35:12;;;;;;;9.08;7.97;;;;;;;20.35;96.29;100162.50;2219379;79;21080;-70
2022/08/23 11:38:37;;;;;;;9.30;8.30;;;;;;;20.32;96.18;100161.09;2174095;78;21001;-71
2022/08/23 11:41:58;;;;;;;9.53;8.63;;;;;;;20.36;96.54;100150.70;2198530;78;20947;-71
2022/08/23 11:45:20;;;;;;;11.80;9.18;;;;;;;20.47;96.82;100147.70;2198135;78;21026;-70
2022/08/23 11:48:39;;;;;;;8.65;7.85;;;;;;;20.56;96.38;100153.93;2216357;78;21091;-72
2022/08/23 11:51:51;;;;;;;8.30;7.47;;;;;;;20.58;95.99;100153.18;2204882;78;20974;-70
2022/08/23 11:55:26;;;;;;;10.00;7.83;;;;;;;20.55;94.88;100157.69;2209323;79;21072;-71
2022/08/23 11:59:00;;;;;;;7.72;7.03;;;;;;;20.53;95.68;100158.44;2208993;79;20978;-70
2022/08/23 12:02:33;;;;;;;8.23;6.78;;;;;;;20.63;95.73;100163.78;2215353;78;21053;-70
2022/08/23 12:05:42;;;;;;;6.72;6.10;;;;;;;20.59;94.97;100167.47;2190584;78;20986;-68
2022/08/23 12:09:00;;;;;;;7.80;6.62;;;;;;;20.56;94.93;100171.98;2199489;79;21325;-70
2022/08/23 12:12:15;;;;;;;6.85;6.22;;;;;;;20.46;94.71;100173.84;2216023;79;20966;-70
2022/08/23 12:15:16;;;;;;;6.55;5.95;;;;;;;20.40;94.84;100170.72;2189054;78;21076;-70
2022/08/23 12:18:17;;;;;;;6.28;5.40;;;;;;;20.37;94.71;100169.84;2216927;78;21485;-70
2022/08/23 12:21:24;;;;;;;5.92;5.42;;;;;;;20.38;94.91;100173.67;2214752;79;21037;-71
2022/08/23 12:24:46;;;;;;;5.80;5.35;;;;;;;20.38;94.83;100174.17;2220259;79;20935;-69
2022/08/23 12:31:47;;;;;;;6.55;5.95;;;;;;;20.41;94.94;100168.31;2161052;80;21109;-70
2022/08/23 12:35:32;;;;;;;;;;;;;;;;;;;;;
2022/08/23 12:38:46;;;;;;;9.68;6.00;;;;;;;20.52;95.17;100166.70;2207582;78;21017;-71
2022/08/23 12:41:58;;;;;;;6.75;5.92;;;;;;;20.58;95.24;100163.96;2199647;78;21093;-73
2022/08/23 12:45:18;;;;;;;6.10;5.60;;;;;;;20.70;95.52;100164.51;2206371;78;21016;-70
2022/08/23 12:48:25;;;;;;;6.40;5.90;;;;;;;20.79;95.21;100164.45;2207149;78;20990;-70
2022/08/23 12:51:27;;;;;;;6.30;5.78;;;;;;;20.82;94.50;100163.45;2210020;79;21017;-70
2022/08/23 12:54:36;;;;;;;6.45;5.87;;;;;;;20.88;94.34;100164.93;2215106;78;21627;-70
2022/08/23 12:57:43;;;;;;;9.43;6.30;;;;;;;20.91;94.30;100160.41;2207043;79;20981;-70
2022/08/23 13:00:59;;;;;;;8.00;7.22;;;;;;;20.99;94.82;100163.58;2156559;79;20966;-70
2022/08/23 13:04:12;;;;;;;8.20;7.50;;;;;;;21.07;94.37;100163.77;2194975;79;20995;-70
2022/08/23 13:07:21;;;;;;;10.48;8.30;;;;;;;21.08;94.19;100161.35;2203614;79;21408;-71
2022/08/23 13:10:23;;;;;;;;;;;;;;;21.06;93.50;100170.20;2202834;78;21089;-70
2022/08/23 13:13:27;;;;;;;10.03;8.75;;;;;;;21.00;93.42;100169.26;2184593;79;20174;-69
2022/08/23 13:16:43;;;;;;;11.45;8.43;;;;;;;20.95;93.55;100163.77;2180607;79;20949;-71
2022/08/23 13:19:56;;;;;;;11.15;8.25;;;;;;;20.97;93.56;100167.56;2157085;80;21038;-72
2022/08/23 13:23:08;;;;;;;8.38;7.67;;;;;;;21.02;93.82;100173.08;2193869;78;20994;-72
2022/08/23 13:26:41;;;;;;;8.33;7.53;;;;;;;21.02;93.46;100173.08;2200126;79;21031;-71
2022/08/23 13:30:04;;;;;;;8.85;7.92;;;;;;;20.96;93.48;100176.19;2198669;79;21038;-68
2022/08/23 13:33:17;;;;;;;11.05;7.37;;;;;;;20.93;93.35;100173.96;2196228;79;21009;-70
2022/08/23 13:36:20;;;;;;;10.40;7.20;;;;;;;20.94;93.43;100174.24;2211185;79;21036;-70
2022/08/23 13:39:22;;;;;;;7.58;6.87;;;;;;;20.98;93.46;100171.39;2200650;78;20919;-71
2022/08/23 13:46:20;;;;;;;9.95;6.78;;;;;;;21.01;93.29;100177.66;2242212;77;21057;-70
2022/08/23 13:49:27;;;;;;;10.50;7.85;;;;;;;21.01;93.16;100174.97;2244515;77;21030;-70
2022/08/23 13:52:35;;;;;;;11.50;7.30;;;;;;;20.99;92.89;100175.72;2238712;77;20996;-70
2022/08/23 13:55:57;;;;;;;9.23;7.37;;;;;;;20.96;92.75;100180.23;2219912;77;21081;-72
2022/08/23 13:59:06;;;;;;;8.28;7.42;;;;;;;20.93;92.70;100173.14;2218676;77;21072;-71
2022/08/23 14:02:13;;;;;;;9.23;8.08;;;;;;;20.92;92.76;100174.18;2238505;77;21346;-71
2022/08/23 14:05:23;;;;;;;8.30;7.22;;;;;;;20.84;92.52;100174.55;2220474;77;22341;-68
2022/08/23 14:08:25;;;;;;;8.38;7.58;;;;;;;20.74;92.36;100173.76;2221050;77;21010;-73
2022/08/23 14:11:26;;;;;;;8.23;7.42;;;;;;;20.67;92.32;100178.45;2238295;77;21044;-69
2022/08/23 14:14:33;;;;;;;9.13;7.28;;;;;;;20.66;92.57;100167.36;2245084;77;20950;-71
2022/08/23 14:17:44;;;;;;;7.80;7.05;;;;;;;20.63;92.50;100179.42;2243986;77;21010;-69
2022/08/23 14:20:46;;;;;;;8.78;7.87;;;;;;;20.61;92.74;100174.81;2237834;77;20956;-70
2022/08/23 14:23:47;;;;;;;9.15;8.18;;;;;;;20.58;92.80;100168.50;2223527;79;21101;-70
2022/08/23 14:26:48;;;;;;;12.30;8.13;;;;;;;20.58;92.88;100170.70;2231949;77;21495;-69
2022/08/23 14:29:56;;;;;;;9.18;8.38;;;;;;;20.57;93.05;100166.34;2218805;77;21001;-71
2022/08/23 14:33:00;;;;;;;8.93;7.80;;;;;;;20.57;93.15;100165.00;2227047;77;21022;-69
2022/08/23 14:36:03;;;;;;;10.05;8.03;;;;;;;20.55;93.40;100174.36;2249108;77;20930;-68
2022/08/23 14:39:06;;;;;;;10.70;7.95;;;;;;;20.56;93.45;100173.33;2241487;77;21417;-69
2022/08/23 14:42:13;;;;;;;11.43;8.98;;;;;;;20.51;93.42;100164.55;2223963;77;21039;-69
2022/08/23 14:45:17;;;;;;;13.03;9.20;;;;;;;20.52;93.66;100162.13;2224371;79;21042;-70
2022/08/23 14:48:18;;;;;;;10.85;9.75;;;;;;;20.53;93.82;100161.13;2219524;77;21469;-69
2022/08/23 14:51:31;;;;;;;12.28;10.63;;;;;;;20.56;93.87;100161.20;2240227;77;21666;-69